sensor_id;sensor_type;location;lat;lon;timestamp;temperature;humidity
23703;DHT22;12030;50.376;8.762;2023-01-29T00:01:40;0.90;99.90
23703;DHT22;12030;50.376;8.762;2023-01-29T00:04:06;0.90;99.90
23703;DHT22;12030;50.376;8.762;2023-01-29T00:06:33;1.00;99.90
23703;DHT22;12030;50.376;8.762;2023-01-29T00:08:58;0.90;99.90
23703;DHT22;12030;50.376;8.762;2023-01-29T00:11:24;1.00;99.90
23703;DHT22;12030;50.376;8.762;2023-01-29T00:13:51;1.00;99.90
23703;DHT22;12030;50.376;8.762;2023-01-29T00:16:16;0.90;99.90
23703;DHT22;12030;50.376;8.762;2023-01-29T00:18:42;0.80;99.90
23703;DHT22;12030;50.376;8.762;2023-01-29T00:21:11;0.80;99.90
23703;DHT22;12030;50.376;8.762;2023-01-29T00:23:37;0.80;99.90
23703;DHT22;12030;50.376;8.762;2023-01-29T00:26:03;0.90;99.90
23703;DHT22;12030;50.376;8.762;2023-01-29T00:28:28;0.80;99.90
23703;DHT22;12030;50.376;8.762;2023-01-29T00:30:54;0.80;99.90
23703;DHT22;12030;50.376;8.762;2023-01-29T00:33:19;0.90;99.90
23703;DHT22;12030;50.376;8.762;2023-01-29T00:35:45;0.90;99.90
23703;DHT22;12030;50.376;8.762;2023-01-29T00:38:10;0.90;99.90
23703;DHT22;12030;50.376;8.762;2023-01-29T00:40:37;1.00;99.90
23703;DHT22;12030;50.376;8.762;2023-01-29T00:43:21;1.00;99.90
23703;DHT22;12030;50.376;8.762;2023-01-29T00:46:06;1.10;99.90
23703;DHT22;12030;50.376;8.762;2023-01-29T00:48:32;1.10;99.90
23703;DHT22;12030;50.376;8.762;2023-01-29T00:50:58;1.10;99.90
23703;DHT22;12030;50.376;8.762;2023-01-29T00:53:24;1.00;99.90
23703;DHT22;12030;50.376;8.762;2023-01-29T00:55:49;1.10;99.90
23703;DHT22;12030;50.376;8.762;2023-01-29T00:58:15;1.10;99.90
23703;DHT22;12030;50.376;8.762;2023-01-29T01:00:46;1.00;99.90
23703;DHT22;12030;50.376;8.762;2023-01-29T01:03:12;1.00;99.90
23703;DHT22;12030;50.376;8.762;2023-01-29T01:05:37;1.00;99.90
23703;DHT22;12030;50.376;8.762;2023-01-29T01:08:03;0.90;99.90
23703;DHT22;12030;50.376;8.762;2023-01-29T01:10:58;0.80;99.90
23703;DHT22;12030;50.376;8.762;2023-01-29T01:13:23;0.80;99.90
23703;DHT22;12030;50.376;8.762;2023-01-29T01:15:49;0.90;99.90
23703;DHT22;12030;50.376;8.762;2023-01-29T01:18:14;0.90;99.90
23703;DHT22;12030;50.376;8.762;2023-01-29T01:20:40;0.80;99.90
23703;DHT22;12030;50.376;8.762;2023-01-29T01:23:06;0.80;99.90
23703;DHT22;12030;50.376;8.762;2023-01-29T01:25:32;0.90;99.90
23703;DHT22;12030;50.376;8.762;2023-01-29T01:27:58;1.00;99.90
23703;DHT22;12030;50.376;8.762;2023-01-29T01:30:25;0.80;99.90
23703;DHT22;12030;50.376;8.762;2023-01-29T01:32:50;0.80;99.90
23703;DHT22;12030;50.376;8.762;2023-01-29T01:35:16;0.70;99.90
23703;DHT22;12030;50.376;8.762;2023-01-29T01:37:42;0.60;99.90
23703;DHT22;12030;50.376;8.762;2023-01-29T01:40:18;0.50;99.90
23703;DHT22;12030;50.376;8.762;2023-01-29T01:42:47;0.50;99.90
23703;DHT22;12030;50.376;8.762;2023-01-29T01:45:39;0.40;99.90
23703;DHT22;12030;50.376;8.762;2023-01-29T01:48:14;0.30;99.90
23703;DHT22;12030;50.376;8.762;2023-01-29T01:51:01;0.40;99.90
23703;DHT22;12030;50.376;8.762;2023-01-29T01:56:02;0.30;99.90
23703;DHT22;12030;50.376;8.762;2023-01-29T01:58:33;0.20;99.90
23703;DHT22;12030;50.376;8.762;2023-01-29T02:01:00;0.20;99.90
23703;DHT22;12030;50.376;8.762;2023-01-29T02:03:27;0.20;99.90
23703;DHT22;12030;50.376;8.762;2023-01-29T02:06:14;0.30;99.90
23703;DHT22;12030;50.376;8.762;2023-01-29T02:09:02;0.20;99.90
23703;DHT22;12030;50.376;8.762;2023-01-29T02:11:47;0.20;99.90
23703;DHT22;12030;50.376;8.762;2023-01-29T02:14:13;0.10;99.90
23703;DHT22;12030;50.376;8.762;2023-01-29T02:16:38;-0.10;99.90
23703;DHT22;12030;50.376;8.762;2023-01-29T02:19:10;-0.10;99.90
23703;DHT22;12030;50.376;8.762;2023-01-29T02:24:36;-0.10;99.90
23703;DHT22;12030;50.376;8.762;2023-01-29T02:27:12;-0.10;99.90
23703;DHT22;12030;50.376;8.762;2023-01-29T02:32:33;0.00;99.90
23703;DHT22;12030;50.376;8.762;2023-01-29T02:35:22;-0.10;99.90
23703;DHT22;12030;50.376;8.762;2023-01-29T02:38:00;-0.10;99.90
23703;DHT22;12030;50.376;8.762;2023-01-29T02:40:30;-0.20;99.90
23703;DHT22;12030;50.376;8.762;2023-01-29T02:43:21;-0.30;99.90
23703;DHT22;12030;50.376;8.762;2023-01-29T02:45:57;-0.30;99.90
23703;DHT22;12030;50.376;8.762;2023-01-29T02:48:28;-0.30;99.90
23703;DHT22;12030;50.376;8.762;2023-01-29T02:51:05;-0.20;99.90
23703;DHT22;12030;50.376;8.762;2023-01-29T02:56:38;-0.40;99.90
23703;DHT22;12030;50.376;8.762;2023-01-29T02:59:07;-0.40;99.90
23703;DHT22;12030;50.376;8.762;2023-01-29T03:01:51;-0.40;99.90
23703;DHT22;12030;50.376;8.762;2023-01-29T03:04:22;-0.30;99.90
23703;DHT22;12030;50.376;8.762;2023-01-29T03:06:52;-0.20;99.90
23703;DHT22;12030;50.376;8.762;2023-01-29T03:09:34;-0.30;99.90
23703;DHT22;12030;50.376;8.762;2023-01-29T03:12:09;-0.30;99.90
23703;DHT22;12030;50.376;8.762;2023-01-29T03:14:54;-0.40;99.90
23703;DHT22;12030;50.376;8.762;2023-01-29T03:18:11;-0.50;99.90
23703;DHT22;12030;50.376;8.762;2023-01-29T03:20:42;-0.70;99.90
23703;DHT22;12030;50.376;8.762;2023-01-29T03:23:22;-0.60;99.90
23703;DHT22;12030;50.376;8.762;2023-01-29T03:26:03;-0.50;99.90
23703;DHT22;12030;50.376;8.762;2023-01-29T03:28:48;-0.50;99.90
23703;DHT22;12030;50.376;8.762;2023-01-29T03:31:32;-0.60;99.90
23703;DHT22;12030;50.376;8.762;2023-01-29T03:34:22;-0.70;99.90
23703;DHT22;12030;50.376;8.762;2023-01-29T03:37:06;-0.70;99.90
23703;DHT22;12030;50.376;8.762;2023-01-29T03:39:33;-0.70;99.90
23703;DHT22;12030;50.376;8.762;2023-01-29T03:42:01;-0.80;99.90
23703;DHT22;12030;50.376;8.762;2023-01-29T03:47:31;-0.90;99.90
23703;DHT22;12030;50.376;8.762;2023-01-29T03:50:03;-0.80;99.90
23703;DHT22;12030;50.376;8.762;2023-01-29T03:52:39;-0.80;99.90
23703;DHT22;12030;50.376;8.762;2023-01-29T03:57:59;-0.90;99.90
23703;DHT22;12030;50.376;8.762;2023-01-29T04:00:39;-0.90;99.90
23703;DHT22;12030;50.376;8.762;2023-01-29T04:03:20;-1.00;99.90
23703;DHT22;12030;50.376;8.762;2023-01-29T04:05:52;-1.00;99.90
23703;DHT22;12030;50.376;8.762;2023-01-29T04:08:26;-1.00;99.90
23703;DHT22;12030;50.376;8.762;2023-01-29T04:10:56;-0.90;99.90
23703;DHT22;12030;50.376;8.762;2023-01-29T04:13:24;-0.90;99.90
23703;DHT22;12030;50.376;8.762;2023-01-29T04:15:55;-1.20;99.90
23703;DHT22;12030;50.376;8.762;2023-01-29T04:18:23;-1.30;99.90
23703;DHT22;12030;50.376;8.762;2023-01-29T04:20:49;-1.30;99.90
23703;DHT22;12030;50.376;8.762;2023-01-29T04:23:23;-1.30;99.90
23703;DHT22;12030;50.376;8.762;2023-01-29T04:31:17;-1.30;99.90
23703;DHT22;12030;50.376;8.762;2023-01-29T04:34:15;-1.30;99.90
23703;DHT22;12030;50.376;8.762;2023-01-29T04:37:11;-1.40;99.90
23703;DHT22;12030;50.376;8.762;2023-01-29T04:39:58;-1.40;99.90
23703;DHT22;12030;50.376;8.762;2023-01-29T04:42:40;-1.40;99.90
23703;DHT22;12030;50.376;8.762;2023-01-29T04:50:55;-1.60;99.90
23703;DHT22;12030;50.376;8.762;2023-01-29T04:56:17;-1.60;99.90
23703;DHT22;12030;50.376;8.762;2023-01-29T04:58:48;-1.60;99.90
23703;DHT22;12030;50.376;8.762;2023-01-29T05:01:17;-1.60;99.90
23703;DHT22;12030;50.376;8.762;2023-01-29T05:03:47;-1.60;99.90
23703;DHT22;12030;50.376;8.762;2023-01-29T05:06:15;-1.60;99.90
23703;DHT22;12030;50.376;8.762;2023-01-29T05:08:41;-1.70;99.90
23703;DHT22;12030;50.376;8.762;2023-01-29T05:11:07;-1.90;99.90
23703;DHT22;12030;50.376;8.762;2023-01-29T05:13:35;-1.80;99.90
23703;DHT22;12030;50.376;8.762;2023-01-29T05:16:25;-1.90;99.90
23703;DHT22;12030;50.376;8.762;2023-01-29T05:18:52;-1.80;99.90
23703;DHT22;12030;50.376;8.762;2023-01-29T05:21:18;-1.70;99.90
23703;DHT22;12030;50.376;8.762;2023-01-29T05:23:45;-1.70;99.90
23703;DHT22;12030;50.376;8.762;2023-01-29T05:26:19;-1.60;99.90
23703;DHT22;12030;50.376;8.762;2023-01-29T05:29:03;-1.50;99.90
23703;DHT22;12030;50.376;8.762;2023-01-29T05:31:29;-1.40;99.90
23703;DHT22;12030;50.376;8.762;2023-01-29T05:33:55;-1.30;99.90
23703;DHT22;12030;50.376;8.762;2023-01-29T05:36:20;-1.40;99.90
23703;DHT22;12030;50.376;8.762;2023-01-29T05:38:46;-1.50;99.90
23703;DHT22;12030;50.376;8.762;2023-01-29T05:41:11;-1.50;99.90
23703;DHT22;12030;50.376;8.762;2023-01-29T05:43:37;-1.60;99.90
23703;DHT22;12030;50.376;8.762;2023-01-29T05:46:02;-1.60;99.90
23703;DHT22;12030;50.376;8.762;2023-01-29T05:48:28;-1.50;99.90
23703;DHT22;12030;50.376;8.762;2023-01-29T05:50:59;-1.40;99.90
23703;DHT22;12030;50.376;8.762;2023-01-29T05:53:24;-1.30;99.90
23703;DHT22;12030;50.376;8.762;2023-01-29T05:55:50;-1.30;99.90
23703;DHT22;12030;50.376;8.762;2023-01-29T05:58:15;-1.20;99.90
23703;DHT22;12030;50.376;8.762;2023-01-29T06:00:43;-1.30;99.90
23703;DHT22;12030;50.376;8.762;2023-01-29T06:03:09;-1.20;99.90
23703;DHT22;12030;50.376;8.762;2023-01-29T06:05:37;-1.30;99.90
23703;DHT22;12030;50.376;8.762;2023-01-29T06:08:03;-1.30;99.90
23703;DHT22;12030;50.376;8.762;2023-01-29T06:10:29;-1.30;99.90
23703;DHT22;12030;50.376;8.762;2023-01-29T06:12:54;-1.30;99.90
23703;DHT22;12030;50.376;8.762;2023-01-29T06:15:19;-1.30;99.90
23703;DHT22;12030;50.376;8.762;2023-01-29T06:17:45;-1.30;99.90
23703;DHT22;12030;50.376;8.762;2023-01-29T06:20:12;-1.30;99.90
23703;DHT22;12030;50.376;8.762;2023-01-29T06:22:37;-1.30;99.90
23703;DHT22;12030;50.376;8.762;2023-01-29T06:25:03;-1.20;99.90
23703;DHT22;12030;50.376;8.762;2023-01-29T06:27:29;-1.20;99.90
23703;DHT22;12030;50.376;8.762;2023-01-29T06:29:55;-1.10;99.90
23703;DHT22;12030;50.376;8.762;2023-01-29T06:32:20;-1.00;99.90
23703;DHT22;12030;50.376;8.762;2023-01-29T06:34:46;-1.00;99.90
23703;DHT22;12030;50.376;8.762;2023-01-29T06:37:11;-0.90;99.90
23703;DHT22;12030;50.376;8.762;2023-01-29T06:39:37;-0.90;99.90
23703;DHT22;12030;50.376;8.762;2023-01-29T06:42:02;-0.80;99.90
23703;DHT22;12030;50.376;8.762;2023-01-29T06:44:28;-0.70;99.90
23703;DHT22;12030;50.376;8.762;2023-01-29T06:46:53;-0.70;99.90
23703;DHT22;12030;50.376;8.762;2023-01-29T06:49:19;-0.70;99.90
23703;DHT22;12030;50.376;8.762;2023-01-29T06:51:44;-0.60;99.90
23703;DHT22;12030;50.376;8.762;2023-01-29T06:54:10;-0.60;99.90
23703;DHT22;12030;50.376;8.762;2023-01-29T06:56:35;-0.60;99.90
23703;DHT22;12030;50.376;8.762;2023-01-29T06:59:01;-0.60;99.90
23703;DHT22;12030;50.376;8.762;2023-01-29T07:01:27;-0.60;99.90
23703;DHT22;12030;50.376;8.762;2023-01-29T07:03:52;-0.70;99.90
23703;DHT22;12030;50.376;8.762;2023-01-29T07:06:18;-0.70;99.90
23703;DHT22;12030;50.376;8.762;2023-01-29T07:08:44;-0.80;99.90
23703;DHT22;12030;50.376;8.762;2023-01-29T07:11:10;-0.80;99.90
23703;DHT22;12030;50.376;8.762;2023-01-29T07:13:36;-0.80;99.90
23703;DHT22;12030;50.376;8.762;2023-01-29T07:16:03;-0.70;99.90
23703;DHT22;12030;50.376;8.762;2023-01-29T07:18:30;-0.70;99.90
23703;DHT22;12030;50.376;8.762;2023-01-29T07:20:56;-0.80;99.90
23703;DHT22;12030;50.376;8.762;2023-01-29T07:23:22;-0.90;99.90
23703;DHT22;12030;50.376;8.762;2023-01-29T07:25:48;-1.00;99.90
23703;DHT22;12030;50.376;8.762;2023-01-29T07:28:18;-1.10;99.90
23703;DHT22;12030;50.376;8.762;2023-01-29T07:30:44;-1.20;99.90
23703;DHT22;12030;50.376;8.762;2023-01-29T07:33:10;-1.10;99.90
23703;DHT22;12030;50.376;8.762;2023-01-29T07:35:37;-1.10;99.90
23703;DHT22;12030;50.376;8.762;2023-01-29T07:38:03;-1.10;99.90
23703;DHT22;12030;50.376;8.762;2023-01-29T07:40:29;-1.20;99.90
23703;DHT22;12030;50.376;8.762;2023-01-29T07:42:58;-1.20;99.90
23703;DHT22;12030;50.376;8.762;2023-01-29T07:45:24;-1.10;99.90
23703;DHT22;12030;50.376;8.762;2023-01-29T07:47:54;-1.00;99.90
23703;DHT22;12030;50.376;8.762;2023-01-29T07:50:21;-1.00;99.90
23703;DHT22;12030;50.376;8.762;2023-01-29T07:52:47;-1.10;99.90
23703;DHT22;12030;50.376;8.762;2023-01-29T07:55:12;-1.10;99.90
23703;DHT22;12030;50.376;8.762;2023-01-29T07:57:38;-1.10;99.90
23703;DHT22;12030;50.376;8.762;2023-01-29T08:00:03;-1.10;99.90
23703;DHT22;12030;50.376;8.762;2023-01-29T08:02:29;-1.10;99.90
23703;DHT22;12030;50.376;8.762;2023-01-29T08:04:54;-1.10;99.90
23703;DHT22;12030;50.376;8.762;2023-01-29T08:07:20;-1.00;99.90
23703;DHT22;12030;50.376;8.762;2023-01-29T08:09:45;-1.00;99.90
23703;DHT22;12030;50.376;8.762;2023-01-29T08:12:11;-1.00;99.90
23703;DHT22;12030;50.376;8.762;2023-01-29T08:14:37;-1.10;99.90
23703;DHT22;12030;50.376;8.762;2023-01-29T08:17:02;-1.10;99.90
23703;DHT22;12030;50.376;8.762;2023-01-29T08:19:28;-1.10;99.90
23703;DHT22;12030;50.376;8.762;2023-01-29T08:21:53;-0.90;99.90
23703;DHT22;12030;50.376;8.762;2023-01-29T08:24:18;-0.80;99.90
23703;DHT22;12030;50.376;8.762;2023-01-29T08:26:44;-0.70;99.90
23703;DHT22;12030;50.376;8.762;2023-01-29T08:29:10;-0.50;99.90
23703;DHT22;12030;50.376;8.762;2023-01-29T08:31:36;-0.30;99.90
23703;DHT22;12030;50.376;8.762;2023-01-29T08:34:02;0.00;99.90
23703;DHT22;12030;50.376;8.762;2023-01-29T08:36:27;0.20;99.90
23703;DHT22;12030;50.376;8.762;2023-01-29T08:38:53;0.40;99.90
23703;DHT22;12030;50.376;8.762;2023-01-29T08:41:18;0.50;99.90
23703;DHT22;12030;50.376;8.762;2023-01-29T08:43:44;0.50;99.90
23703;DHT22;12030;50.376;8.762;2023-01-29T08:46:10;0.50;99.90
23703;DHT22;12030;50.376;8.762;2023-01-29T08:48:36;0.60;99.90
23703;DHT22;12030;50.376;8.762;2023-01-29T08:51:02;0.70;99.90
23703;DHT22;12030;50.376;8.762;2023-01-29T08:53:29;0.80;99.90
23703;DHT22;12030;50.376;8.762;2023-01-29T08:55:54;1.00;99.90
23703;DHT22;12030;50.376;8.762;2023-01-29T08:58:20;1.10;99.90
23703;DHT22;12030;50.376;8.762;2023-01-29T09:00:45;1.10;99.90
23703;DHT22;12030;50.376;8.762;2023-01-29T09:03:11;1.10;99.90
23703;DHT22;12030;50.376;8.762;2023-01-29T09:05:38;1.20;99.90
23703;DHT22;12030;50.376;8.762;2023-01-29T09:08:05;1.10;99.90
23703;DHT22;12030;50.376;8.762;2023-01-29T09:10:31;1.30;99.90
23703;DHT22;12030;50.376;8.762;2023-01-29T09:12:57;1.30;99.90
23703;DHT22;12030;50.376;8.762;2023-01-29T09:15:23;1.40;99.90
23703;DHT22;12030;50.376;8.762;2023-01-29T09:17:48;1.50;99.90
23703;DHT22;12030;50.376;8.762;2023-01-29T09:20:15;1.40;99.90
23703;DHT22;12030;50.376;8.762;2023-01-29T09:22:41;1.30;99.90
23703;DHT22;12030;50.376;8.762;2023-01-29T09:25:07;1.30;99.90
23703;DHT22;12030;50.376;8.762;2023-01-29T09:27:32;1.30;99.90
23703;DHT22;12030;50.376;8.762;2023-01-29T09:29:58;1.30;99.90
23703;DHT22;12030;50.376;8.762;2023-01-29T09:32:23;1.40;99.90
23703;DHT22;12030;50.376;8.762;2023-01-29T09:34:49;1.40;99.90
23703;DHT22;12030;50.376;8.762;2023-01-29T09:37:15;1.50;99.90
23703;DHT22;12030;50.376;8.762;2023-01-29T09:39:42;1.50;99.90
23703;DHT22;12030;50.376;8.762;2023-01-29T09:42:24;1.50;99.90
23703;DHT22;12030;50.376;8.762;2023-01-29T09:47:35;1.70;99.90
23703;DHT22;12030;50.376;8.762;2023-01-29T09:50:02;1.60;99.90
23703;DHT22;12030;50.376;8.762;2023-01-29T09:52:44;1.70;99.90
23703;DHT22;12030;50.376;8.762;2023-01-29T09:55:28;1.60;99.90
23703;DHT22;12030;50.376;8.762;2023-01-29T09:58:02;1.60;99.90
23703;DHT22;12030;50.376;8.762;2023-01-29T10:00:32;1.60;99.90
23703;DHT22;12030;50.376;8.762;2023-01-29T10:11:40;1.40;99.90
23703;DHT22;12030;50.376;8.762;2023-01-29T10:14:29;1.40;99.90
23703;DHT22;12030;50.376;8.762;2023-01-29T10:20:41;1.50;99.90
23703;DHT22;12030;50.376;8.762;2023-01-29T10:23:31;1.80;99.90
23703;DHT22;12030;50.376;8.762;2023-01-29T10:25:58;1.60;99.90
23703;DHT22;12030;50.376;8.762;2023-01-29T10:30:59;1.60;99.90
23703;DHT22;12030;50.376;8.762;2023-01-29T10:33:37;1.60;99.90
23703;DHT22;12030;50.376;8.762;2023-01-29T10:36:07;1.70;99.90
23703;DHT22;12030;50.376;8.762;2023-01-29T10:38:47;1.90;99.90
23703;DHT22;12030;50.376;8.762;2023-01-29T10:41:18;2.10;99.90
23703;DHT22;12030;50.376;8.762;2023-01-29T10:49:06;2.30;99.90
23703;DHT22;12030;50.376;8.762;2023-01-29T10:51:56;2.40;99.90
23703;DHT22;12030;50.376;8.762;2023-01-29T11:00:09;2.40;99.90
23703;DHT22;12030;50.376;8.762;2023-01-29T11:02:42;2.40;99.90
23703;DHT22;12030;50.376;8.762;2023-01-29T11:08:00;2.30;99.90
23703;DHT22;12030;50.376;8.762;2023-01-29T11:10:27;2.30;99.90
23703;DHT22;12030;50.376;8.762;2023-01-29T11:12:54;2.40;99.90
23703;DHT22;12030;50.376;8.762;2023-01-29T11:15:31;2.40;99.90
23703;DHT22;12030;50.376;8.762;2023-01-29T11:18:05;2.50;99.90
23703;DHT22;12030;50.376;8.762;2023-01-29T11:20:32;2.70;99.90
23703;DHT22;12030;50.376;8.762;2023-01-29T11:22:57;2.60;99.90
23703;DHT22;12030;50.376;8.762;2023-01-29T11:25:24;2.70;99.90
23703;DHT22;12030;50.376;8.762;2023-01-29T11:27:56;2.50;99.90
23703;DHT22;12030;50.376;8.762;2023-01-29T11:30:29;2.60;99.90
23703;DHT22;12030;50.376;8.762;2023-01-29T11:33:22;2.60;99.90
23703;DHT22;12030;50.376;8.762;2023-01-29T11:35:49;2.60;99.90
23703;DHT22;12030;50.376;8.762;2023-01-29T11:38:27;2.60;99.90
23703;DHT22;12030;50.376;8.762;2023-01-29T11:41:05;2.60;99.90
23703;DHT22;12030;50.376;8.762;2023-01-29T11:43:32;2.50;99.90
23703;DHT22;12030;50.376;8.762;2023-01-29T11:46:03;2.50;99.90
23703;DHT22;12030;50.376;8.762;2023-01-29T11:48:40;2.60;99.90
23703;DHT22;12030;50.376;8.762;2023-01-29T11:51:07;2.70;99.90
23703;DHT22;12030;50.376;8.762;2023-01-29T11:53:42;2.70;99.90
23703;DHT22;12030;50.376;8.762;2023-01-29T11:56:21;2.60;99.90
23703;DHT22;12030;50.376;8.762;2023-01-29T11:58:49;2.80;99.90
23703;DHT22;12030;50.376;8.762;2023-01-29T12:01:17;2.80;99.90
23703;DHT22;12030;50.376;8.762;2023-01-29T12:03:52;2.60;99.90
23703;DHT22;12030;50.376;8.762;2023-01-29T12:06:33;2.60;99.90
23703;DHT22;12030;50.376;8.762;2023-01-29T12:09:02;2.60;99.90
23703;DHT22;12030;50.376;8.762;2023-01-29T12:11:30;2.70;99.90
23703;DHT22;12030;50.376;8.762;2023-01-29T12:14:03;2.80;99.90
23703;DHT22;12030;50.376;8.762;2023-01-29T12:19:10;2.90;99.90
23703;DHT22;12030;50.376;8.762;2023-01-29T12:21:48;2.90;99.90
23703;DHT22;12030;50.376;8.762;2023-01-29T12:24:23;2.90;99.90
23703;DHT22;12030;50.376;8.762;2023-01-29T12:27:00;3.00;99.90
23703;DHT22;12030;50.376;8.762;2023-01-29T12:29:51;2.90;99.90
23703;DHT22;12030;50.376;8.762;2023-01-29T12:35:34;2.80;99.90
23703;DHT22;12030;50.376;8.762;2023-01-29T12:38:09;2.80;99.90
23703;DHT22;12030;50.376;8.762;2023-01-29T12:40:43;2.70;99.90
23703;DHT22;12030;50.376;8.762;2023-01-29T12:43:15;2.70;99.90
23703;DHT22;12030;50.376;8.762;2023-01-29T12:45:43;2.70;99.90
23703;DHT22;12030;50.376;8.762;2023-01-29T12:48:12;2.60;99.90
23703;DHT22;12030;50.376;8.762;2023-01-29T12:50:38;2.60;99.90
23703;DHT22;12030;50.376;8.762;2023-01-29T12:53:36;2.50;99.90
23703;DHT22;12030;50.376;8.762;2023-01-29T12:56:14;2.50;99.90
23703;DHT22;12030;50.376;8.762;2023-01-29T12:58:44;2.50;99.90
23703;DHT22;12030;50.376;8.762;2023-01-29T13:01:37;2.40;99.90
23703;DHT22;12030;50.376;8.762;2023-01-29T13:04:10;2.40;99.90
23703;DHT22;12030;50.376;8.762;2023-01-29T13:06:43;2.40;99.90
23703;DHT22;12030;50.376;8.762;2023-01-29T13:09:14;2.50;99.90
23703;DHT22;12030;50.376;8.762;2023-01-29T13:12:06;2.50;99.90
23703;DHT22;12030;50.376;8.762;2023-01-29T13:17:52;2.70;99.90
23703;DHT22;12030;50.376;8.762;2023-01-29T13:20:24;2.80;99.90
23703;DHT22;12030;50.376;8.762;2023-01-29T13:22:53;2.80;99.90
23703;DHT22;12030;50.376;8.762;2023-01-29T13:25:20;2.80;99.90
23703;DHT22;12030;50.376;8.762;2023-01-29T13:27:46;2.80;99.90
23703;DHT22;12030;50.376;8.762;2023-01-29T13:30:32;2.80;99.90
23703;DHT22;12030;50.376;8.762;2023-01-29T13:33:02;2.80;99.90
23703;DHT22;12030;50.376;8.762;2023-01-29T13:35:40;2.90;99.90
23703;DHT22;12030;50.376;8.762;2023-01-29T13:38:23;2.90;99.90
23703;DHT22;12030;50.376;8.762;2023-01-29T13:40:50;3.00;99.90
23703;DHT22;12030;50.376;8.762;2023-01-29T13:43:21;2.90;99.90
23703;DHT22;12030;50.376;8.762;2023-01-29T13:45:49;3.00;99.90
23703;DHT22;12030;50.376;8.762;2023-01-29T13:48:24;3.00;99.90
23703;DHT22;12030;50.376;8.762;2023-01-29T13:50:52;2.90;99.90
23703;DHT22;12030;50.376;8.762;2023-01-29T13:53:24;2.80;99.90
23703;DHT22;12030;50.376;8.762;2023-01-29T13:55:50;3.00;99.90
23703;DHT22;12030;50.376;8.762;2023-01-29T13:58:51;3.00;99.90
23703;DHT22;12030;50.376;8.762;2023-01-29T14:01:06;3.10;99.90
23703;DHT22;12030;50.376;8.762;2023-01-29T14:03:45;3.20;99.90
23703;DHT22;12030;50.376;8.762;2023-01-29T14:06:35;3.30;99.90
23703;DHT22;12030;50.376;8.762;2023-01-29T14:09:02;3.20;99.90
23703;DHT22;12030;50.376;8.762;2023-01-29T14:11:33;3.30;99.90
23703;DHT22;12030;50.376;8.762;2023-01-29T14:14:00;3.20;99.90
23703;DHT22;12030;50.376;8.762;2023-01-29T14:16:27;3.20;99.90
23703;DHT22;12030;50.376;8.762;2023-01-29T14:19:02;3.10;99.90
23703;DHT22;12030;50.376;8.762;2023-01-29T14:21:33;2.90;99.90
23703;DHT22;12030;50.376;8.762;2023-01-29T14:24:19;2.90;99.90
23703;DHT22;12030;50.376;8.762;2023-01-29T14:26:47;2.70;99.90
23703;DHT22;12030;50.376;8.762;2023-01-29T14:31:46;2.70;99.90
23703;DHT22;12030;50.376;8.762;2023-01-29T14:34:17;2.60;99.90
23703;DHT22;12030;50.376;8.762;2023-01-29T14:36:46;2.60;99.90
23703;DHT22;12030;50.376;8.762;2023-01-29T14:39:32;2.50;99.90
23703;DHT22;12030;50.376;8.762;2023-01-29T14:41:59;2.60;99.90
23703;DHT22;12030;50.376;8.762;2023-01-29T14:44:47;2.60;99.90
23703;DHT22;12030;50.376;8.762;2023-01-29T14:49:59;2.70;99.90
23703;DHT22;12030;50.376;8.762;2023-01-29T14:52:40;2.70;99.90
23703;DHT22;12030;50.376;8.762;2023-01-29T14:55:14;2.60;99.90
23703;DHT22;12030;50.376;8.762;2023-01-29T14:57:44;2.60;99.90
23703;DHT22;12030;50.376;8.762;2023-01-29T15:00:21;2.50;99.90
23703;DHT22;12030;50.376;8.762;2023-01-29T15:02:48;2.50;99.90
23703;DHT22;12030;50.376;8.762;2023-01-29T15:05:19;2.40;99.90
23703;DHT22;12030;50.376;8.762;2023-01-29T15:07:54;2.40;99.90
23703;DHT22;12030;50.376;8.762;2023-01-29T15:11:08;2.20;99.90
23703;DHT22;12030;50.376;8.762;2023-01-29T15:13:47;2.20;99.90
23703;DHT22;12030;50.376;8.762;2023-01-29T15:16:21;2.10;99.90
23703;DHT22;12030;50.376;8.762;2023-01-29T15:18:53;2.20;99.90
23703;DHT22;12030;50.376;8.762;2023-01-29T15:21:20;2.10;99.90
23703;DHT22;12030;50.376;8.762;2023-01-29T15:23:46;2.00;99.90
23703;DHT22;12030;50.376;8.762;2023-01-29T15:26:21;2.00;99.90
23703;DHT22;12030;50.376;8.762;2023-01-29T15:28:55;1.90;99.90
23703;DHT22;12030;50.376;8.762;2023-01-29T15:31:20;1.90;99.90
23703;DHT22;12030;50.376;8.762;2023-01-29T15:33:47;1.80;99.90
23703;DHT22;12030;50.376;8.762;2023-01-29T15:36:22;1.80;99.90
23703;DHT22;12030;50.376;8.762;2023-01-29T15:39:22;1.70;99.90
23703;DHT22;12030;50.376;8.762;2023-01-29T15:41:49;1.60;99.90
23703;DHT22;12030;50.376;8.762;2023-01-29T15:44:22;1.50;99.90
23703;DHT22;12030;50.376;8.762;2023-01-29T15:46:53;1.60;99.90
23703;DHT22;12030;50.376;8.762;2023-01-29T15:51:58;1.30;99.90
23703;DHT22;12030;50.376;8.762;2023-01-29T15:54:32;1.30;99.90
23703;DHT22;12030;50.376;8.762;2023-01-29T15:56:58;1.30;99.90
23703;DHT22;12030;50.376;8.762;2023-01-29T15:59:26;1.20;99.90
23703;DHT22;12030;50.376;8.762;2023-01-29T16:01:53;1.10;99.90
23703;DHT22;12030;50.376;8.762;2023-01-29T16:04:26;1.10;99.90
23703;DHT22;12030;50.376;8.762;2023-01-29T16:06:55;1.10;99.90
23703;DHT22;12030;50.376;8.762;2023-01-29T16:09:24;1.10;99.90
23703;DHT22;12030;50.376;8.762;2023-01-29T16:11:50;1.00;99.90
23703;DHT22;12030;50.376;8.762;2023-01-29T16:14:20;1.00;99.90
23703;DHT22;12030;50.376;8.762;2023-01-29T16:16:46;0.80;99.90
23703;DHT22;12030;50.376;8.762;2023-01-29T16:19:39;0.90;99.90
23703;DHT22;12030;50.376;8.762;2023-01-29T16:22:05;0.80;99.90
23703;DHT22;12030;50.376;8.762;2023-01-29T16:24:35;0.80;99.90
23703;DHT22;12030;50.376;8.762;2023-01-29T16:27:07;0.70;99.90
23703;DHT22;12030;50.376;8.762;2023-01-29T16:29:35;0.70;99.90
23703;DHT22;12030;50.376;8.762;2023-01-29T16:32:01;0.70;99.90
23703;DHT22;12030;50.376;8.762;2023-01-29T16:34:31;0.70;99.90
23703;DHT22;12030;50.376;8.762;2023-01-29T16:37:00;0.70;99.90
23703;DHT22;12030;50.376;8.762;2023-01-29T16:39:35;0.80;99.90
23703;DHT22;12030;50.376;8.762;2023-01-29T16:44:49;0.70;99.90
23703;DHT22;12030;50.376;8.762;2023-01-29T16:47:35;0.60;99.90
23703;DHT22;12030;50.376;8.762;2023-01-29T16:50:31;0.60;99.90
23703;DHT22;12030;50.376;8.762;2023-01-29T16:53:03;0.50;99.90
23703;DHT22;12030;50.376;8.762;2023-01-29T16:55:39;0.60;99.90
23703;DHT22;12030;50.376;8.762;2023-01-29T16:58:15;0.50;99.90
23703;DHT22;12030;50.376;8.762;2023-01-29T17:00:50;0.60;99.90
23703;DHT22;12030;50.376;8.762;2023-01-29T17:03:17;0.60;99.90
23703;DHT22;12030;50.376;8.762;2023-01-29T17:05:43;0.60;99.90
23703;DHT22;12030;50.376;8.762;2023-01-29T17:08:21;0.70;99.90
23703;DHT22;12030;50.376;8.762;2023-01-29T17:10:48;0.70;99.90
23703;DHT22;12030;50.376;8.762;2023-01-29T17:13:37;0.70;99.90
23703;DHT22;12030;50.376;8.762;2023-01-29T17:16:30;0.70;99.90
23703;DHT22;12030;50.376;8.762;2023-01-29T17:18:57;0.60;99.90
23703;DHT22;12030;50.376;8.762;2023-01-29T17:21:23;0.60;99.90
23703;DHT22;12030;50.376;8.762;2023-01-29T17:23:49;0.50;99.90
23703;DHT22;12030;50.376;8.762;2023-01-29T17:26:16;0.40;99.90
23703;DHT22;12030;50.376;8.762;2023-01-29T17:28:42;0.40;99.90